createdAt,value
2016-09-14T05:43:30.082Z,90
2016-09-14T05:44:30.730Z,95
2016-09-14T05:45:31.379Z,95
2016-09-14T05:46:32.050Z,95
2016-09-14T05:47:32.752Z,100
2016-09-14T05:48:33.482Z,100
2016-09-14T05:49:34.168Z,105
2016-09-14T05:50:34.834Z,105
2016-09-14T05:51:35.527Z,105
2016-09-14T05:52:36.194Z,110
2016-09-14T05:53:36.905Z,110
2016-09-14T05:54:37.858Z,115
2016-09-14T05:55:38.757Z,115
2016-09-14T05:56:39.501Z,120
2016-09-14T05:57:40.164Z,120
2016-09-14T05:58:40.825Z,125
2016-09-14T05:59:41.510Z,125
2016-09-14T06:00:42.398Z,130
2016-09-14T06:01:43.586Z,135
2016-09-14T06:02:43.944Z,135
2016-09-14T06:03:44.759Z,140
2016-09-14T06:04:47.079Z,140
2016-09-14T06:06:49.663Z,150
2016-09-14T06:07:50.340Z,150
2016-09-14T06:08:51.074Z,155
2016-09-14T06:09:51.754Z,160
2016-09-14T06:10:52.362Z,165
2016-09-14T06:11:53.481Z,165
2016-09-14T06:12:54.263Z,170
2016-09-14T06:13:54.997Z,170
2016-09-14T06:14:55.708Z,170
2016-09-14T06:15:56.371Z,175
2016-09-14T06:16:57.056Z,180
2016-09-14T06:17:57.827Z,185
2016-09-14T06:18:58.480Z,280
2016-09-14T06:19:59.340Z,415
2016-09-14T06:21:00.040Z,445
2016-09-14T06:22:00.688Z,435
2016-09-14T06:23:01.392Z,325
2016-09-14T06:24:02.011Z,255
2016-09-14T06:25:02.719Z,225
2016-09-14T06:26:03.874Z,215
2016-09-14T06:27:04.403Z,210
2016-09-14T06:28:05.074Z,210
2016-09-14T06:29:05.759Z,210
2016-09-14T06:30:06.491Z,215
2016-09-14T06:31:07.252Z,215
2016-09-14T06:32:08.548Z,220
2016-09-14T06:33:10.263Z,235
2016-09-14T06:34:12.495Z,240
2016-09-14T06:35:13.782Z,260
2016-09-14T06:36:14.730Z,280
2016-09-14T06:37:18.028Z,355
2016-09-14T06:38:18.718Z,525
2016-09-14T06:39:19.371Z,585
2016-09-14T06:40:20.055Z,650
2016-09-14T06:41:20.780Z,735
2016-09-14T06:42:21.452Z,765
2016-09-14T06:43:22.138Z,795
2016-09-14T06:44:22.870Z,825
2016-09-14T06:45:23.535Z,835
2016-09-14T06:46:24.223Z,850
2016-09-14T06:47:24.884Z,840
2016-09-14T06:48:25.536Z,860
2016-09-14T06:49:26.197Z,880
2016-09-14T06:50:26.850Z,915
2016-09-14T06:51:27.524Z,945
2016-09-14T06:52:28.173Z,960
2016-09-14T06:53:28.836Z,970
2016-09-14T06:54:29.564Z,980
2016-09-14T06:55:30.216Z,970
2016-09-14T06:56:30.902Z,980
2016-09-14T06:57:31.567Z,990
2016-09-14T06:58:32.248Z,1005
2016-09-14T06:59:32.933Z,1040
2016-09-14T07:00:33.759Z,1040
2016-09-14T07:01:34.383Z,1035
2016-09-14T07:02:35.090Z,1040
2016-09-14T07:03:35.773Z,1035
2016-09-14T07:04:36.475Z,1025
2016-09-14T07:05:37.141Z,1045
2016-09-14T07:06:37.815Z,1075
2016-09-14T07:07:38.494Z,1125
2016-09-14T07:08:39.149Z,1160
2016-09-14T07:09:39.811Z,1180
2016-09-14T07:10:40.472Z,1200
2016-09-14T07:11:41.122Z,1180
2016-09-14T07:12:41.779Z,1160
2016-09-14T07:13:42.428Z,1140
2016-09-14T07:14:43.091Z,1145
2016-09-14T07:15:43.771Z,1160
2016-09-14T07:16:44.437Z,1185
2016-09-14T07:17:45.110Z,1245
2016-09-14T07:18:45.779Z,1290
2016-09-14T07:19:46.416Z,1310
2016-09-14T07:20:47.080Z,1340
2016-09-14T07:21:47.759Z,1380
2016-09-14T07:22:48.427Z,1365
2016-09-14T07:23:49.091Z,1370
2016-09-14T07:24:49.768Z,1375
2016-09-14T07:25:50.428Z,1385
2016-09-14T07:26:51.135Z,1375
2016-09-14T07:27:51.803Z,1360
2016-09-14T07:28:52.461Z,1335
2016-09-14T07:29:53.228Z,1300
2016-09-14T07:30:53.964Z,1240
2016-09-14T07:31:54.623Z,1185
2016-09-14T07:32:55.290Z,1155
2016-09-14T07:33:55.930Z,1160
2016-09-14T07:34:56.595Z,1160
2016-09-14T07:35:57.231Z,1150
2016-09-14T07:36:57.888Z,1150
2016-09-14T07:37:58.569Z,1170
2016-09-14T07:38:59.211Z,1155
2016-09-14T07:39:59.861Z,1135
2016-09-14T07:41:00.511Z,1125
2016-09-14T07:42:01.203Z,1115
2016-09-14T07:43:01.840Z,1095
2016-09-14T07:44:02.499Z,1100
2016-09-14T07:45:03.143Z,1110
2016-09-14T07:46:03.799Z,1135
2016-09-14T07:47:04.882Z,1135
2016-09-14T07:48:05.695Z,1135
2016-09-14T07:49:06.782Z,1125
2016-09-14T07:50:07.260Z,1140
2016-09-14T07:51:08.183Z,1120
2016-09-14T07:52:13.368Z,1105
2016-09-14T07:53:14.332Z,1130
2016-09-14T07:54:14.986Z,1150
2016-09-14T07:55:15.657Z,1190
2016-09-14T07:56:16.327Z,1240
2016-09-14T07:57:16.979Z,1310
2016-09-14T07:58:17.689Z,1375
2016-09-14T07:59:18.952Z,1415
2016-09-14T08:00:19.627Z,1465
2016-09-14T08:01:20.284Z,1495
2016-09-14T08:02:20.965Z,1510
2016-09-14T08:03:22.694Z,1510
2016-09-14T08:04:23.388Z,1520
2016-09-14T08:05:24.035Z,1515
2016-09-14T08:06:24.702Z,1525
2016-09-14T08:07:25.352Z,1510
2016-09-14T08:08:26.014Z,1515
2016-09-14T08:09:26.685Z,1505
2016-09-14T08:10:27.363Z,1485
2016-09-14T08:11:28.012Z,1475
2016-09-14T08:12:28.794Z,1490
2016-09-14T08:13:29.452Z,1490
2016-09-14T08:14:30.132Z,1495
2016-09-14T08:15:30.777Z,1535
2016-09-14T08:16:31.457Z,1575
2016-09-14T08:17:32.120Z,1570
2016-09-14T08:18:32.783Z,1585
2016-09-14T08:19:33.428Z,1595
2016-09-14T08:20:34.110Z,1595
2016-09-14T08:21:34.721Z,1600
2016-09-14T08:22:35.367Z,1605
2016-09-14T08:23:36.018Z,1640
2016-09-14T08:24:36.723Z,1675
2016-09-14T08:25:37.376Z,1680
2016-09-14T08:26:38.036Z,1650
2016-09-14T08:27:38.698Z,1595
2016-09-14T08:28:39.360Z,1575
2016-09-14T08:29:40.087Z,1585
2016-09-14T08:30:40.769Z,1610
2016-09-14T08:31:41.435Z,1630
2016-09-14T08:32:42.102Z,1680
2016-09-14T08:33:42.770Z,1730
2016-09-14T08:34:43.453Z,1780
2016-09-14T08:35:44.119Z,1855
2016-09-14T08:36:44.788Z,1850
2016-09-14T08:37:45.469Z,1855
2016-09-14T08:38:46.131Z,1895
2016-09-14T08:39:46.801Z,1895
2016-09-14T08:40:47.478Z,1895
2016-09-14T08:41:48.143Z,1850
2016-09-14T08:42:48.801Z,1820
2016-09-14T08:43:49.456Z,1785
2016-09-14T08:44:50.110Z,1735
2016-09-14T08:45:50.800Z,1695
2016-09-14T08:46:51.471Z,1675
2016-09-14T08:47:52.146Z,1680
2016-09-14T08:48:52.797Z,1675
2016-09-14T08:49:53.471Z,1700
2016-09-14T08:50:54.146Z,1740
2016-09-14T08:51:54.834Z,1790
2016-09-14T08:52:55.553Z,1825
2016-09-14T08:53:56.216Z,1860
2016-09-14T08:54:56.888Z,1895
2016-09-14T08:55:57.562Z,1940
2016-09-14T08:56:58.224Z,1895
2016-09-14T08:57:58.894Z,1860
2016-09-14T08:58:59.573Z,1800
2016-09-14T09:00:00.246Z,1755
2016-09-14T09:01:00.923Z,1705
2016-09-14T09:02:01.584Z,1670
2016-09-14T09:03:02.231Z,1660
2016-09-14T09:04:02.937Z,1665
2016-09-14T09:05:03.620Z,1700
2016-09-14T09:06:04.311Z,1725
2016-09-14T09:07:04.997Z,1125
2016-09-14T09:08:05.652Z,730
2016-09-14T09:09:06.370Z,1035
2016-09-14T09:10:07.084Z,1055
2016-09-14T09:11:07.757Z,1475
2016-09-14T09:12:08.459Z,1105
2016-09-14T09:13:09.128Z,875
2016-09-14T09:14:09.799Z,960
2016-09-14T09:15:10.476Z,920
2016-09-14T09:16:11.158Z,1180
2016-09-14T09:17:11.832Z,1605
2016-09-14T09:18:12.493Z,1870
2016-09-14T09:19:13.158Z,1315
2016-09-14T09:20:13.823Z,950
2016-09-14T09:21:14.522Z,1835
2016-09-14T09:22:15.228Z,1890
2016-09-14T09:23:15.900Z,995
2016-09-14T09:24:16.575Z,325
2016-09-14T09:25:17.242Z,325
2016-09-14T09:26:17.902Z,325
2016-09-14T09:27:18.554Z,315
2016-09-14T09:28:19.220Z,315
2016-09-14T09:29:19.870Z,315
2016-09-14T09:30:20.538Z,315
2016-09-14T09:31:21.227Z,310
2016-09-14T09:32:21.902Z,310
2016-09-14T09:33:22.550Z,320
2016-09-14T09:34:23.214Z,320
2016-09-14T09:35:23.862Z,310
2016-09-14T09:36:24.504Z,315
2016-09-14T09:37:25.155Z,305
2016-09-14T09:38:25.822Z,305
2016-09-14T09:39:26.492Z,300
2016-09-14T09:40:27.142Z,300
2016-09-14T09:41:27.785Z,300
2016-09-14T09:42:28.449Z,305
2016-09-14T09:43:29.097Z,300
2016-09-14T09:44:29.740Z,300
2016-09-14T09:45:30.394Z,295
2016-09-14T09:46:31.043Z,295
2016-09-14T09:47:31.717Z,295
2016-09-14T09:48:32.363Z,300
2016-09-14T09:49:33.053Z,290
2016-09-14T09:50:33.703Z,290
2016-09-14T09:51:34.355Z,290
2016-09-14T09:52:35.017Z,290
2016-09-14T09:53:35.679Z,290
2016-09-14T09:54:36.346Z,295
2016-09-14T09:55:37.020Z,285
2016-09-14T09:56:37.652Z,280
2016-09-14T09:57:38.333Z,285
2016-09-14T09:58:39.005Z,280
2016-09-14T09:59:39.686Z,275
2016-09-14T10:00:40.355Z,270
2016-09-14T10:01:41.021Z,275
2016-09-14T10:02:41.681Z,270
2016-09-14T10:03:42.338Z,270
2016-09-14T10:04:43.034Z,270
2016-09-14T10:05:43.819Z,270
2016-09-14T10:06:44.509Z,270
2016-09-14T10:07:45.177Z,270
2016-09-14T10:08:45.835Z,270
2016-09-14T10:09:46.504Z,265
2016-09-14T10:10:47.175Z,265
2016-09-14T10:11:49.387Z,265
2016-09-14T10:12:50.051Z,265
2016-09-14T10:13:50.733Z,265
2016-09-14T10:14:51.389Z,270
2016-09-14T10:15:52.048Z,265
2016-09-14T10:16:52.714Z,265
2016-09-14T10:17:53.376Z,265
2016-09-14T10:18:54.031Z,270
2016-09-14T10:19:54.767Z,270
2016-09-14T10:20:55.427Z,270
2016-09-14T10:21:56.068Z,270
2016-09-14T10:22:56.724Z,265
2016-09-14T10:23:57.384Z,265
2016-09-14T10:24:58.062Z,265
2016-09-14T10:25:58.737Z,265
2016-09-14T10:26:59.410Z,260
2016-09-14T10:28:00.082Z,260
2016-09-14T10:29:00.723Z,260
2016-09-14T10:30:01.377Z,260
2016-09-14T10:31:02.013Z,255
2016-09-14T10:32:02.677Z,260
2016-09-14T10:33:03.343Z,260
2016-09-14T10:34:03.996Z,260
2016-09-14T10:35:04.701Z,250
2016-09-14T10:36:05.360Z,250
2016-09-14T10:37:06.002Z,250
2016-09-14T10:38:06.657Z,250
2016-09-14T10:39:07.324Z,250
2016-09-14T10:40:07.968Z,245
2016-09-14T10:41:08.627Z,245
2016-09-14T10:42:09.289Z,245
2016-09-14T10:43:10.952Z,245
2016-09-14T10:44:11.508Z,245
2016-09-14T10:45:12.260Z,250
2016-09-14T10:46:12.895Z,245
2016-09-14T10:47:13.574Z,245
2016-09-14T10:48:14.337Z,245
2016-09-14T10:49:14.941Z,245
2016-09-14T10:50:15.596Z,240
2016-09-14T10:51:16.550Z,240
2016-09-14T10:52:17.200Z,240
2016-09-14T10:53:17.857Z,240
2016-09-14T10:54:18.539Z,235
2016-09-14T10:55:19.378Z,230
2016-09-14T10:56:19.986Z,230
2016-09-14T10:57:20.668Z,230
2016-09-14T10:58:21.521Z,230
2016-09-14T10:59:22.278Z,230
2016-09-14T11:00:22.983Z,230
2016-09-14T11:01:23.647Z,230
2016-09-14T11:02:24.297Z,230
2016-09-14T11:03:24.951Z,225
2016-09-14T11:04:25.621Z,225
2016-09-14T11:05:26.274Z,225
2016-09-14T11:06:26.934Z,230
2016-09-14T11:07:27.591Z,225
2016-09-14T11:08:28.250Z,225
2016-09-14T11:09:28.898Z,220
2016-09-14T11:10:29.561Z,225
2016-09-14T11:11:30.209Z,220
2016-09-14T11:12:30.866Z,220
2016-09-14T11:13:31.546Z,215
2016-09-14T11:14:32.211Z,220
2016-09-14T11:15:32.880Z,215
2016-09-14T11:16:33.549Z,215
2016-09-14T11:17:34.205Z,215
2016-09-14T11:18:34.853Z,220
2016-09-14T11:19:35.505Z,215
2016-09-14T11:20:36.180Z,210
2016-09-14T11:21:36.846Z,210
2016-09-14T11:22:37.521Z,215
2016-09-14T11:23:38.219Z,215
2016-09-14T11:24:38.883Z,215
2016-09-14T11:25:39.544Z,215
2016-09-14T11:26:40.202Z,210
2016-09-14T11:27:41.161Z,210
2016-09-14T11:28:41.826Z,210
2016-09-14T11:29:42.500Z,205
2016-09-14T11:30:43.145Z,205
2016-09-14T11:31:43.822Z,205
2016-09-14T11:32:44.504Z,205
2016-09-14T11:33:45.169Z,205
